createdAt,value
2022-10-11T00:01:32.246Z,79.60
2022-10-11T00:03:59.098Z,79.59
2022-10-11T00:06:27.046Z,79.76
2022-10-11T00:08:53.995Z,79.92
2022-10-11T00:11:20.805Z,80.00
2022-10-11T00:13:48.477Z,80.11
2022-10-11T00:16:15.643Z,80.12
2022-10-11T00:18:42.575Z,80.40
2022-10-11T00:21:13.022Z,80.46
2022-10-11T00:23:40.873Z,80.18
2022-10-11T00:26:10.000Z,80.10
2022-10-11T00:28:37.959Z,80.43
2022-10-11T00:31:13.658Z,80.73
2022-10-11T00:33:40.801Z,80.76
2022-10-11T00:36:08.992Z,80.60
2022-10-11T00:38:36.175Z,80.75
2022-10-11T00:41:03.318Z,80.96
2022-10-11T00:43:31.629Z,81.06
2022-10-11T00:45:58.494Z,81.31
2022-10-11T00:48:52.282Z,81.09
2022-10-11T00:51:43.612Z,81.37
2022-10-11T00:54:13.939Z,81.38
2022-10-11T00:56:41.397Z,81.01
2022-10-11T00:59:19.515Z,81.25
2022-10-11T01:01:46.839Z,81.75
2022-10-11T01:04:13.786Z,81.79
2022-10-11T01:06:42.001Z,81.95
2022-10-11T01:09:10.131Z,81.85
2022-10-11T01:11:41.183Z,81.71
2022-10-11T01:14:17.517Z,81.86
2022-10-11T01:17:15.336Z,81.97
2022-10-11T01:20:06.705Z,82.03
2022-10-11T01:22:58.258Z,82.04
2022-10-11T01:25:32.784Z,82.05
2022-10-11T01:28:31.822Z,82.20
2022-10-11T01:31:05.098Z,82.28
2022-10-11T01:33:58.149Z,82.49
2022-10-11T01:36:33.540Z,82.27
2022-10-11T01:39:09.790Z,82.66
2022-10-11T01:41:47.278Z,82.46
2022-10-11T01:44:14.875Z,82.55
2022-10-11T01:46:42.081Z,82.53
2022-10-11T01:49:09.605Z,82.47
2022-10-11T01:51:45.109Z,82.66
2022-10-11T01:54:21.342Z,82.58
2022-10-11T01:57:19.198Z,82.66
2022-10-11T02:00:24.646Z,82.71
2022-10-11T02:03:16.809Z,82.65
2022-10-11T02:05:43.819Z,82.58
2022-10-11T02:08:19.806Z,83.05
2022-10-11T02:11:07.706Z,82.99
2022-10-11T02:13:51.752Z,82.68
2022-10-11T02:16:23.586Z,83.13
2022-10-11T02:18:53.004Z,83.00
2022-10-11T02:21:23.279Z,82.69
2022-10-11T02:23:56.350Z,82.87
2022-10-11T02:26:27.670Z,82.98
2022-10-11T02:28:58.159Z,82.91
2022-10-11T02:31:25.766Z,82.80
2022-10-11T02:33:55.789Z,82.73
2022-10-11T02:36:52.110Z,82.69
2022-10-11T02:39:26.209Z,82.71
2022-10-11T02:41:58.178Z,82.84
2022-10-11T02:44:40.396Z,83.13
2022-10-11T02:47:08.782Z,83.29
2022-10-11T02:49:36.656Z,83.41
2022-10-11T02:52:05.919Z,83.44
2022-10-11T02:54:33.184Z,83.72
2022-10-11T02:57:00.406Z,83.91
2022-10-11T02:59:27.336Z,83.68
2022-10-11T03:01:54.383Z,83.91
2022-10-11T03:04:21.614Z,83.86
2022-10-11T03:06:48.675Z,83.85
2022-10-11T03:09:15.504Z,84.40
2022-10-11T03:11:42.604Z,84.59
2022-10-11T03:14:09.727Z,84.87
2022-10-11T03:16:36.879Z,84.97
2022-10-11T03:19:04.196Z,84.92
2022-10-11T03:21:31.073Z,85.21
2022-10-11T03:23:57.998Z,84.95
2022-10-11T03:26:25.207Z,85.56
2022-10-11T03:28:52.090Z,85.48
2022-10-11T03:31:19.558Z,85.56
2022-10-11T03:33:46.658Z,85.59
2022-10-11T03:36:14.007Z,85.75
2022-10-11T03:38:40.900Z,86.00
2022-10-11T03:41:07.993Z,86.48
2022-10-11T03:43:34.925Z,86.44
2022-10-11T03:46:02.115Z,86.55
2022-10-11T03:48:29.717Z,86.69
2022-10-11T03:50:56.631Z,86.77
2022-10-11T03:53:23.538Z,86.67
2022-10-11T03:55:55.241Z,86.96
2022-10-11T03:58:22.617Z,87.56
2022-10-11T04:00:49.998Z,87.66
2022-10-11T04:03:17.258Z,87.98
2022-10-11T04:05:44.164Z,88.33
2022-10-11T04:08:12.373Z,88.14
2022-10-11T04:10:40.560Z,88.49
2022-10-11T04:13:09.501Z,89.27
2022-10-11T04:15:37.256Z,89.76
2022-10-11T04:18:05.314Z,89.49
2022-10-11T04:20:32.226Z,89.91
2022-10-11T04:22:59.370Z,90.09
2022-10-11T04:25:27.061Z,89.96
2022-10-11T04:27:53.934Z,90.16
2022-10-11T04:30:21.198Z,90.39
2022-10-11T04:32:48.814Z,90.51
2022-10-11T04:35:15.875Z,90.54
2022-10-11T04:37:42.826Z,90.69
2022-10-11T04:40:10.674Z,90.71
2022-10-11T04:42:37.523Z,90.94
2022-10-11T04:45:05.074Z,91.31
2022-10-11T04:47:32.122Z,91.54
2022-10-11T04:49:59.040Z,91.82
2022-10-11T04:52:26.510Z,91.98
2022-10-11T04:54:53.857Z,92.58
2022-10-11T04:57:20.706Z,92.75
2022-10-11T04:59:50.197Z,92.85
2022-10-11T05:02:18.257Z,93.19
2022-10-11T05:04:45.225Z,92.95
2022-10-11T05:07:12.090Z,93.05
2022-10-11T05:09:39.439Z,93.39
2022-10-11T05:12:06.535Z,93.67
2022-10-11T05:14:33.365Z,93.35
2022-10-11T05:17:00.502Z,93.26
2022-10-11T05:19:27.482Z,93.41
2022-10-11T05:21:55.178Z,93.78
2022-10-11T05:24:22.445Z,93.92
2022-10-11T05:26:49.936Z,94.13
2022-10-11T05:29:16.796Z,93.84
2022-10-11T05:31:43.859Z,94.13
2022-10-11T05:34:10.749Z,94.13
2022-10-11T05:36:37.925Z,93.89
2022-10-11T05:39:05.038Z,93.92
2022-10-11T05:41:32.059Z,93.98
2022-10-11T05:43:59.818Z,94.00
2022-10-11T05:46:26.988Z,93.97
2022-10-11T05:48:53.965Z,94.20
2022-10-11T05:51:21.394Z,94.44
2022-10-11T05:53:48.354Z,94.41
2022-10-11T05:56:22.383Z,94.26
2022-10-11T05:58:50.655Z,94.41
2022-10-11T06:01:22.828Z,94.14
2022-10-11T06:03:50.202Z,94.11
2022-10-11T06:06:17.106Z,93.93
2022-10-11T06:08:45.196Z,93.86
2022-10-11T06:11:17.905Z,93.96
2022-10-11T06:13:45.500Z,93.53
2022-10-11T06:16:13.711Z,93.25
2022-10-11T06:18:40.733Z,93.07
2022-10-11T06:21:07.997Z,92.94
2022-10-11T06:23:34.946Z,92.39
2022-10-11T06:26:08.292Z,92.11
2022-10-11T06:28:37.032Z,91.46
2022-10-11T06:31:06.115Z,91.20
2022-10-11T06:33:33.994Z,90.53
2022-10-11T06:36:04.009Z,89.84
2022-10-11T06:38:31.246Z,89.20
2022-10-11T06:41:08.978Z,88.67
2022-10-11T06:43:37.092Z,88.50
2022-10-11T06:46:04.528Z,88.38
2022-10-11T06:48:32.140Z,87.35
2022-10-11T06:51:00.642Z,86.88
2022-10-11T06:53:28.487Z,86.25
2022-10-11T06:56:05.102Z,85.73
2022-10-11T06:58:33.192Z,84.98
2022-10-11T07:01:04.127Z,84.64
2022-10-11T07:03:31.752Z,83.93
2022-10-11T07:06:07.939Z,83.48
2022-10-11T07:08:36.402Z,83.41
2022-10-11T07:11:07.389Z,83.58
2022-10-11T07:13:34.481Z,83.81
2022-10-11T07:16:03.275Z,83.97
2022-10-11T07:18:31.806Z,83.62
2022-10-11T07:21:02.278Z,84.03
2022-10-11T07:23:29.387Z,83.95
2022-10-11T07:25:57.103Z,83.55
2022-10-11T07:28:25.245Z,83.89
2022-10-11T07:30:52.159Z,84.29
2022-10-11T07:33:19.346Z,84.60
2022-10-11T07:35:48.513Z,84.26
2022-10-11T07:38:16.131Z,84.56
2022-10-11T07:40:46.146Z,83.58
2022-10-11T07:43:13.812Z,83.51
2022-10-11T07:45:45.555Z,83.79
2022-10-11T07:48:12.688Z,83.81
2022-10-11T07:50:39.646Z,83.79
2022-10-11T07:53:08.072Z,84.13
2022-10-11T07:55:40.280Z,83.63
2022-10-11T07:58:11.580Z,83.91
2022-10-11T08:00:39.473Z,83.51
2022-10-11T08:03:07.311Z,83.14
2022-10-11T08:05:34.863Z,82.58
2022-10-11T08:08:02.184Z,82.46
2022-10-11T08:10:29.404Z,81.46
2022-10-11T08:13:01.917Z,80.61
2022-10-11T08:15:31.463Z,80.92
2022-10-11T08:17:58.400Z,79.98
2022-10-11T08:20:25.392Z,79.00
2022-10-11T08:22:52.523Z,79.31
2022-10-11T08:25:19.555Z,79.50
2022-10-11T08:27:46.561Z,80.23
2022-10-11T08:30:13.942Z,79.84
2022-10-11T08:32:41.043Z,79.48
2022-10-11T08:35:08.277Z,78.76
2022-10-11T08:37:35.422Z,78.56
2022-10-11T08:40:03.585Z,79.11
2022-10-11T08:42:30.466Z,78.84
2022-10-11T08:45:11.787Z,77.96
2022-10-11T08:47:45.621Z,78.85
2022-10-11T08:50:22.138Z,79.39
2022-10-11T08:52:56.556Z,78.45
2022-10-11T08:55:29.624Z,78.67
2022-10-11T08:57:57.467Z,78.23
2022-10-11T09:00:30.812Z,78.03
2022-10-11T09:03:16.683Z,78.09
2022-10-11T09:06:35.822Z,77.74
2022-10-11T09:09:02.745Z,77.35
2022-10-11T09:11:48.882Z,76.97
2022-10-11T09:14:45.543Z,76.94
2022-10-11T09:17:37.000Z,76.71
2022-10-11T09:20:36.747Z,76.79
2022-10-11T09:23:44.301Z,76.54
2022-10-11T09:26:29.807Z,75.67
2022-10-11T09:29:41.306Z,75.91
2022-10-11T09:32:15.977Z,75.15
2022-10-11T09:34:43.905Z,75.42
2022-10-11T09:37:30.379Z,75.78
2022-10-11T09:40:00.827Z,75.48
2022-10-11T09:42:28.506Z,76.23
2022-10-11T09:44:57.354Z,75.74
2022-10-11T09:47:27.348Z,75.06
2022-10-11T09:49:57.161Z,74.14
2022-10-11T09:52:25.252Z,73.38
2022-10-11T09:54:59.754Z,72.76
2022-10-11T09:57:31.102Z,72.41
2022-10-11T09:59:59.283Z,73.13
2022-10-11T10:02:28.106Z,73.00
2022-10-11T10:05:02.592Z,73.40
2022-10-11T10:07:32.821Z,74.22
2022-10-11T10:10:22.470Z,73.02
2022-10-11T10:12:55.103Z,71.37
2022-10-11T10:15:23.403Z,71.64
2022-10-11T10:17:53.369Z,70.67
2022-10-11T10:20:24.251Z,71.22
2022-10-11T10:22:51.926Z,70.65
2022-10-11T10:25:50.936Z,71.37
2022-10-11T10:28:27.129Z,72.04
2022-10-11T10:30:57.519Z,71.36
2022-10-11T10:33:33.167Z,70.44
2022-10-11T10:36:17.693Z,70.34
2022-10-11T10:38:52.398Z,69.11
2022-10-11T10:41:20.229Z,67.91
2022-10-11T10:43:57.038Z,68.39
2022-10-11T10:46:57.788Z,67.60
2022-10-11T10:52:57.071Z,65.73
2022-10-11T10:55:47.402Z,66.49
2022-10-11T10:58:32.361Z,66.15
2022-10-11T11:01:25.749Z,65.83
2022-10-11T11:04:11.367Z,63.74
2022-10-11T11:06:38.437Z,63.24
2022-10-11T11:09:24.092Z,60.39
2022-10-11T11:12:27.101Z,59.86
2022-10-11T11:15:04.428Z,56.81
2022-10-11T11:17:34.369Z,56.58
2022-10-11T11:20:26.196Z,57.43
2022-10-11T11:23:08.521Z,57.44
2022-10-11T11:26:30.124Z,57.88
2022-10-11T11:29:23.115Z,58.40
2022-10-11T11:32:15.052Z,58.49
2022-10-11T11:34:48.488Z,58.04
2022-10-11T11:37:35.868Z,55.48
2022-10-11T11:40:19.733Z,55.93
2022-10-11T11:42:55.015Z,55.62
2022-10-11T11:45:36.194Z,57.13
2022-10-11T11:48:08.662Z,56.81
2022-10-11T11:50:43.926Z,56.90
2022-10-11T11:53:18.344Z,56.70
2022-10-11T11:56:02.599Z,57.62
2022-10-11T11:58:44.289Z,55.80
2022-10-11T12:01:32.695Z,55.26
2022-10-11T12:04:12.163Z,53.71
2022-10-11T12:06:52.424Z,52.76
2022-10-11T12:09:25.461Z,51.95
2022-10-11T12:12:00.067Z,50.99
2022-10-11T12:14:27.665Z,53.29
2022-10-11T12:17:22.584Z,54.11
2022-10-11T12:20:08.521Z,54.07
2022-10-11T12:22:50.991Z,53.07
2022-10-11T12:25:27.385Z,52.53
2022-10-11T12:27:58.109Z,50.98
2022-10-11T12:30:43.739Z,51.33
2022-10-11T12:33:25.458Z,51.11
2022-10-11T12:35:55.452Z,51.83
2022-10-11T12:38:31.888Z,51.17
2022-10-11T12:41:18.693Z,51.22
2022-10-11T12:43:48.817Z,52.45
2022-10-11T12:46:27.984Z,53.82
2022-10-11T12:49:16.524Z,54.13
2022-10-11T12:51:59.989Z,54.82
2022-10-11T12:54:48.597Z,56.22
2022-10-11T12:57:46.157Z,54.85
2022-10-11T13:00:34.123Z,54.22
2022-10-11T13:03:04.917Z,53.05
2022-10-11T13:05:45.577Z,52.76
2022-10-11T13:08:18.822Z,51.77
2022-10-11T13:10:47.927Z,51.92
2022-10-11T13:13:22.485Z,52.54
2022-10-11T13:15:51.835Z,52.00
2022-10-11T13:18:21.520Z,51.45
2022-10-11T13:20:48.834Z,51.06
2022-10-11T13:23:25.248Z,51.85
2022-10-11T13:25:53.954Z,52.56
2022-10-11T13:28:22.468Z,52.56
2022-10-11T13:30:54.449Z,52.95
2022-10-11T13:33:25.560Z,52.60
2022-10-11T13:35:53.041Z,53.08
2022-10-11T13:38:40.773Z,52.79
2022-10-11T13:41:12.449Z,52.20
2022-10-11T13:43:40.747Z,52.09
2022-10-11T13:46:17.704Z,52.18
2022-10-11T13:48:45.157Z,51.58
2022-10-11T13:51:26.929Z,51.56
2022-10-11T13:53:58.887Z,51.39
2022-10-11T13:56:27.605Z,51.27
2022-10-11T13:58:55.587Z,51.06
2022-10-11T14:01:27.822Z,50.68
2022-10-11T14:04:08.523Z,50.51
2022-10-11T14:06:46.737Z,51.45
2022-10-11T14:09:30.492Z,50.10
2022-10-11T14:12:32.312Z,51.01
2022-10-11T14:15:05.309Z,51.46
2022-10-11T14:17:39.042Z,51.56
2022-10-11T14:20:38.180Z,50.80
2022-10-11T14:23:06.726Z,50.77
2022-10-11T14:25:34.420Z,51.33
2022-10-11T14:28:01.615Z,51.67
2022-10-11T14:30:31.698Z,52.18
2022-10-11T14:33:01.578Z,52.53
2022-10-11T14:35:32.370Z,52.08
2022-10-11T14:38:00.382Z,52.38
2022-10-11T14:40:30.833Z,53.02
2022-10-11T14:42:58.269Z,53.16
2022-10-11T14:45:26.536Z,53.75
2022-10-11T14:47:53.764Z,54.81
2022-10-11T14:50:47.917Z,53.99
2022-10-11T14:53:15.218Z,54.89
2022-10-11T14:55:43.481Z,54.76
2022-10-11T14:58:13.509Z,55.09
2022-10-11T15:00:40.795Z,55.34
2022-10-11T15:03:07.933Z,55.53
2022-10-11T15:05:36.040Z,56.50
2022-10-11T15:08:05.447Z,55.21
2022-10-11T15:10:38.970Z,55.54
2022-10-11T15:13:07.185Z,55.93
2022-10-11T15:15:37.086Z,56.42
2022-10-11T15:18:06.751Z,56.65
2022-10-11T15:20:39.728Z,56.16
2022-10-11T15:23:10.105Z,56.55
2022-10-11T15:25:39.810Z,56.32
2022-10-11T15:28:08.473Z,56.58
2022-10-11T15:30:41.355Z,57.45
2022-10-11T15:33:09.215Z,57.99
2022-10-11T15:35:36.386Z,58.02
2022-10-11T15:38:03.593Z,57.95
2022-10-11T15:40:33.673Z,58.24
2022-10-11T15:43:00.877Z,58.31
2022-10-11T15:45:29.130Z,58.38
2022-10-11T15:47:56.658Z,59.40
2022-10-11T15:50:37.435Z,59.28
2022-10-11T15:53:18.870Z,60.39
2022-10-11T15:55:52.105Z,60.65
2022-10-11T15:58:29.610Z,60.93
2022-10-11T16:01:00.405Z,61.18
2022-10-11T16:03:30.177Z,61.54
2022-10-11T16:06:03.847Z,61.84
2022-10-11T16:08:34.282Z,61.77
2022-10-11T16:11:01.552Z,62.28
2022-10-11T16:13:29.201Z,62.69
2022-10-11T16:15:56.152Z,63.30
2022-10-11T16:18:23.368Z,63.50
2022-10-11T16:20:52.470Z,63.80
2022-10-11T16:23:21.911Z,63.99
2022-10-11T16:26:10.229Z,64.37
2022-10-11T16:28:38.260Z,64.78
2022-10-11T16:31:10.583Z,65.73
2022-10-11T16:33:45.878Z,66.13
2022-10-11T16:36:34.597Z,67.11
2022-10-11T16:39:08.890Z,67.53
2022-10-11T16:41:36.049Z,67.86
2022-10-11T16:44:04.432Z,68.23
2022-10-11T16:46:33.058Z,68.44
2022-10-11T16:49:00.172Z,68.76
2022-10-11T16:51:27.318Z,68.45
2022-10-11T16:53:54.358Z,68.38
2022-10-11T16:56:24.183Z,68.48
2022-10-11T16:58:53.374Z,68.54
2022-10-11T17:01:21.414Z,68.40
2022-10-11T17:03:49.695Z,68.93
2022-10-11T17:06:17.624Z,68.94
2022-10-11T17:08:45.091Z,68.91
2022-10-11T17:11:12.424Z,67.58
2022-10-11T17:13:39.325Z,67.18
2022-10-11T17:16:07.318Z,67.59
2022-10-11T17:18:34.568Z,67.71
2022-10-11T17:21:07.944Z,67.41
2022-10-11T17:23:35.569Z,67.69
2022-10-11T17:26:10.828Z,67.70
2022-10-11T17:28:39.258Z,67.93
2022-10-11T17:31:07.908Z,68.03
2022-10-11T17:33:35.768Z,68.72
2022-10-11T17:36:13.965Z,68.74
2022-10-11T17:38:41.302Z,68.94
2022-10-11T17:41:09.265Z,69.05
2022-10-11T17:43:36.477Z,69.36
2022-10-11T17:46:06.200Z,69.60
2022-10-11T17:48:36.687Z,69.89
2022-10-11T17:51:16.202Z,69.44
2022-10-11T17:53:44.455Z,69.51
2022-10-11T17:56:15.192Z,70.07
2022-10-11T17:58:42.688Z,69.57
2022-10-11T18:01:14.896Z,69.83
2022-10-11T18:03:42.875Z,69.47
2022-10-11T18:06:13.277Z,69.97
2022-10-11T18:08:41.124Z,69.93
2022-10-11T18:11:17.803Z,70.29
2022-10-11T18:13:48.946Z,70.11
2022-10-11T18:16:18.957Z,69.94
2022-10-11T18:18:46.695Z,70.61
2022-10-11T18:21:14.039Z,70.81
2022-10-11T18:23:41.117Z,71.08
2022-10-11T18:26:13.432Z,71.38
2022-10-11T18:28:41.602Z,71.57
2022-10-11T18:31:13.418Z,72.58
2022-10-11T18:33:42.557Z,72.51
2022-10-11T18:36:12.215Z,72.35
2022-10-11T18:38:43.920Z,72.91
2022-10-11T18:41:11.710Z,73.11
2022-10-11T18:43:39.249Z,73.78
2022-10-11T18:46:08.432Z,74.31
2022-10-11T18:48:35.767Z,74.15
2022-10-11T18:51:09.976Z,74.36
2022-10-11T18:53:39.011Z,74.16
2022-10-11T18:56:08.517Z,73.94
2022-10-11T18:58:37.000Z,73.66
2022-10-11T19:01:12.462Z,73.27
2022-10-11T19:03:39.681Z,73.23
2022-10-11T19:06:09.504Z,73.56
2022-10-11T19:08:36.655Z,73.73
2022-10-11T19:11:07.759Z,73.76
2022-10-11T19:13:35.401Z,73.64
2022-10-11T19:16:05.031Z,73.82
2022-10-11T19:18:32.977Z,73.90
2022-10-11T19:21:05.203Z,74.27
2022-10-11T19:23:39.376Z,74.07
2022-10-11T19:26:08.665Z,74.31
2022-10-11T19:28:36.918Z,74.50
2022-10-11T19:31:05.939Z,74.71
2022-10-11T19:33:34.968Z,74.86
2022-10-11T19:36:04.789Z,74.84
2022-10-11T19:38:34.083Z,75.00
2022-10-11T19:41:02.221Z,74.87
2022-10-11T19:43:29.134Z,74.86
2022-10-11T19:46:05.069Z,74.83
2022-10-11T19:48:32.762Z,74.95
2022-10-11T19:51:08.213Z,75.06
2022-10-11T19:53:35.865Z,75.17
2022-10-11T19:56:09.604Z,75.54
2022-10-11T19:58:37.174Z,75.75
2022-10-11T20:01:05.733Z,75.70
2022-10-11T20:03:33.509Z,75.99
2022-10-11T20:06:02.419Z,76.65
2022-10-11T20:08:31.400Z,76.20
2022-10-11T20:11:00.265Z,76.33
2022-10-11T20:13:34.577Z,76.40
2022-10-11T20:16:10.895Z,76.36
2022-10-11T20:18:39.163Z,76.57
2022-10-11T20:21:12.559Z,76.67
2022-10-11T20:26:10.981Z,77.52
2022-10-11T20:28:38.648Z,77.62
2022-10-11T20:31:12.790Z,77.56
2022-10-11T20:33:39.754Z,77.32
2022-10-11T20:36:08.397Z,77.52
2022-10-11T20:38:37.284Z,77.61
2022-10-11T20:41:09.417Z,77.44
2022-10-11T20:43:36.292Z,77.51
2022-10-11T20:46:07.522Z,77.37
2022-10-11T20:48:35.426Z,77.62
2022-10-11T20:51:02.674Z,77.37
2022-10-11T20:53:30.229Z,77.48
2022-10-11T20:55:57.169Z,77.20
2022-10-11T20:58:24.404Z,77.62
2022-10-11T21:00:51.654Z,77.57
2022-10-11T21:03:18.959Z,77.71
2022-10-11T21:05:45.890Z,78.00
2022-10-11T21:08:13.505Z,78.15
2022-10-11T21:10:40.651Z,78.71
2022-10-11T21:13:07.865Z,78.97
2022-10-11T21:15:34.918Z,79.23
2022-10-11T21:18:02.029Z,79.17
2022-10-11T21:20:28.874Z,79.18
2022-10-11T21:22:55.771Z,79.16
2022-10-11T21:25:22.898Z,78.99
2022-10-11T21:27:49.942Z,79.28
2022-10-11T21:30:16.963Z,79.40
2022-10-11T21:32:44.425Z,79.66
2022-10-11T21:35:11.607Z,79.84
2022-10-11T21:37:38.488Z,79.66
2022-10-11T21:40:06.229Z,80.13
2022-10-11T21:42:33.284Z,80.19
2022-10-11T21:45:00.227Z,80.39
2022-10-11T21:47:27.359Z,80.40
2022-10-11T21:49:54.233Z,80.59
2022-10-11T21:52:21.402Z,80.60
2022-10-11T21:54:48.229Z,80.92
2022-10-11T21:57:15.322Z,80.96
2022-10-11T21:59:42.238Z,80.89
2022-10-11T22:02:09.201Z,81.08
2022-10-11T22:04:36.371Z,81.41
2022-10-11T22:07:03.358Z,81.26
2022-10-11T22:09:34.862Z,81.10
2022-10-11T22:12:02.644Z,81.23
2022-10-11T22:14:30.506Z,81.14
2022-10-11T22:16:57.569Z,81.46
2022-10-11T22:19:24.921Z,81.81
2022-10-11T22:21:51.817Z,81.57
2022-10-11T22:24:18.899Z,81.62
2022-10-11T22:26:46.202Z,81.57
2022-10-11T22:29:13.188Z,81.50
2022-10-11T22:31:40.187Z,81.60
2022-10-11T22:34:07.299Z,81.64
2022-10-11T22:36:34.321Z,81.87
2022-10-11T22:39:01.267Z,82.05
2022-10-11T22:41:28.680Z,82.28
2022-10-11T22:43:55.566Z,81.99
2022-10-11T22:46:22.759Z,82.28
2022-10-11T22:48:49.885Z,82.47
2022-10-11T22:51:16.863Z,82.49
2022-10-11T22:53:43.884Z,82.46
2022-10-11T22:56:11.633Z,82.46
2022-10-11T22:58:38.632Z,82.45
2022-10-11T23:01:10.534Z,82.51
2022-10-11T23:03:38.066Z,82.47
2022-10-11T23:06:05.833Z,82.77
2022-10-11T23:08:32.746Z,82.69
2022-10-11T23:11:07.686Z,82.77
2022-10-11T23:13:35.125Z,82.60
2022-10-11T23:16:07.290Z,83.07
2022-10-11T23:18:34.516Z,83.08
2022-10-11T23:21:01.489Z,83.03
2022-10-11T23:23:29.469Z,83.19
2022-10-11T23:26:02.835Z,83.30
2022-10-11T23:28:30.140Z,83.28
2022-10-11T23:30:57.114Z,83.42
2022-10-11T23:33:24.369Z,83.26
2022-10-11T23:35:51.304Z,83.54
2022-10-11T23:38:18.188Z,83.65
2022-10-11T23:40:45.249Z,83.66
2022-10-11T23:43:12.170Z,83.88
2022-10-11T23:45:39.069Z,83.96
2022-10-11T23:48:06.325Z,84.35
2022-10-11T23:50:33.200Z,84.17
2022-10-11T23:53:00.045Z,84.36
2022-10-11T23:55:27.143Z,84.38
2022-10-11T23:57:54.203Z,84.67
